Terminal Aerodrome Forecast
Issued by NWS

Home | Current Version | Previous Version | Text Only | Print | Product List | Glossary On
Versions: 1 2 3 4 5 6 7 8 9 10 11 12 13 14 15 16 17 18
000
FTUS44 KSJT 241126
TAFBBD
TAF
KBBD 241126Z 2412/2512 15006KT P6SM SCT015
      TEMPO 2412/2414 BKN015
     FM241600 16006KT P6SM SCT060
     FM250000 12005KT P6SM FEW250=

USA.gov is the U.S. government's official web portal to all federal, state and local government web resources and services.